createdAt,value
2022-12-12T00:02:21.153Z,9.52
2022-12-12T00:04:48.764Z,10.00
2022-12-12T00:07:16.285Z,9.55
2022-12-12T00:09:43.901Z,9.13
2022-12-12T00:12:11.501Z,9.23
2022-12-12T00:14:40.376Z,8.70
2022-12-12T00:17:08.057Z,9.57
2022-12-12T00:19:35.535Z,9.93
2022-12-12T00:22:02.955Z,10.60
2022-12-12T00:24:30.385Z,9.82
2022-12-12T00:26:57.844Z,9.90
2022-12-12T00:29:25.862Z,10.25
2022-12-12T00:31:55.278Z,10.20
2022-12-12T00:34:22.710Z,11.13
2022-12-12T00:36:50.206Z,11.23
2022-12-12T00:39:18.530Z,9.27
2022-12-12T00:41:46.500Z,10.07
2022-12-12T00:44:13.965Z,11.15
2022-12-12T00:46:41.594Z,9.15
2022-12-12T00:49:10.645Z,10.57
2022-12-12T00:51:38.130Z,11.38
2022-12-12T00:54:05.883Z,9.57
2022-12-12T00:56:33.388Z,10.00
2022-12-12T00:59:02.653Z,9.88
2022-12-12T01:01:32.741Z,11.63
2022-12-12T01:04:00.574Z,9.70
2022-12-12T01:06:29.737Z,10.13
2022-12-12T01:08:57.402Z,10.45
2022-12-12T01:11:24.981Z,11.13
2022-12-12T01:13:55.069Z,11.30
2022-12-12T01:16:23.802Z,10.07
2022-12-12T01:18:51.696Z,11.80
2022-12-12T01:21:20.392Z,11.50
2022-12-12T01:23:49.356Z,11.38
2022-12-12T01:26:19.565Z,10.57
2022-12-12T01:28:47.888Z,10.60
2022-12-12T01:31:16.143Z,12.20
2022-12-12T01:33:44.614Z,11.30
2022-12-12T01:36:13.649Z,12.60
2022-12-12T01:38:41.154Z,12.25
2022-12-12T01:41:10.426Z,11.23
2022-12-12T01:43:38.021Z,11.95
2022-12-12T01:46:32.024Z,12.00
2022-12-12T01:49:03.762Z,11.93
2022-12-12T01:51:31.893Z,11.85
2022-12-12T01:54:04.830Z,10.05
2022-12-12T01:56:34.948Z,12.00
2022-12-12T01:59:05.404Z,12.15
2022-12-12T02:01:33.774Z,11.43
2022-12-12T02:04:02.922Z,12.00
2022-12-12T02:06:31.143Z,10.88
2022-12-12T02:09:03.074Z,10.82
2022-12-12T02:11:32.143Z,11.65
2022-12-12T02:14:01.315Z,10.10
2022-12-12T02:16:40.333Z,11.45
2022-12-12T02:19:34.877Z,12.45
2022-12-12T02:22:09.327Z,10.55
2022-12-12T02:25:13.292Z,12.48
2022-12-12T02:28:21.397Z,12.95
2022-12-12T02:31:11.109Z,9.85
2022-12-12T02:33:47.645Z,11.07
2022-12-12T02:36:24.205Z,12.00
2022-12-12T02:39:00.438Z,10.20
2022-12-12T02:41:35.128Z,10.43
2022-12-12T02:44:14.531Z,10.85
2022-12-12T02:46:48.510Z,11.85
2022-12-12T02:49:22.172Z,10.45
2022-12-12T02:51:51.627Z,11.35
2022-12-12T02:54:22.185Z,11.10
2022-12-12T02:56:53.253Z,10.98
2022-12-12T02:59:25.517Z,10.57
2022-12-12T03:02:40.183Z,11.65
2022-12-12T03:05:29.199Z,11.88
2022-12-12T03:08:07.954Z,13.05
2022-12-12T03:10:48.728Z,12.20
2022-12-12T03:13:30.198Z,12.70
2022-12-12T03:16:09.564Z,11.45
2022-12-12T03:18:48.313Z,11.52
2022-12-12T03:21:21.470Z,13.63
2022-12-12T03:23:52.423Z,13.00
2022-12-12T03:26:25.320Z,13.75
2022-12-12T03:28:58.865Z,13.15
2022-12-12T03:31:31.250Z,13.82
2022-12-12T03:34:05.416Z,13.25
2022-12-12T03:36:38.052Z,12.02
2022-12-12T03:39:11.984Z,11.93
2022-12-12T03:41:44.074Z,11.63
2022-12-12T03:44:17.166Z,12.73
2022-12-12T03:46:52.230Z,10.77
2022-12-12T03:49:26.965Z,11.27
2022-12-12T03:51:59.439Z,11.77
2022-12-12T03:54:33.126Z,10.10
2022-12-12T03:57:05.672Z,10.15
2022-12-12T03:59:40.113Z,9.80
2022-12-12T04:02:15.014Z,9.40
2022-12-12T04:04:53.795Z,10.38
2022-12-12T04:07:25.110Z,12.38
2022-12-12T04:09:53.098Z,11.27
2022-12-12T04:12:23.868Z,13.15
2022-12-12T04:15:04.267Z,13.18
2022-12-12T04:17:38.692Z,12.65
2022-12-12T04:20:18.224Z,10.75
2022-12-12T04:23:01.320Z,13.18
2022-12-12T04:25:38.799Z,13.95
2022-12-12T04:28:07.354Z,14.65
2022-12-12T04:30:36.590Z,14.40
2022-12-12T04:33:09.325Z,14.32
2022-12-12T04:35:43.958Z,15.35
2022-12-12T04:38:17.962Z,14.60
2022-12-12T04:40:50.643Z,13.40
2022-12-12T04:43:23.122Z,14.68
2022-12-12T04:45:55.423Z,11.98
2022-12-12T04:48:27.989Z,17.73
2022-12-12T04:51:01.148Z,14.48
2022-12-12T04:53:34.262Z,18.08
2022-12-12T04:56:08.634Z,15.70
2022-12-12T04:58:37.598Z,18.88
2022-12-12T05:01:11.742Z,17.75
2022-12-12T05:03:47.238Z,22.58
2022-12-12T05:06:20.316Z,20.98
2022-12-12T05:08:50.477Z,19.75
2022-12-12T05:11:19.087Z,20.27
2022-12-12T05:13:47.104Z,20.27
2022-12-12T05:16:22.036Z,18.95
2022-12-12T05:18:50.177Z,21.73
2022-12-12T05:21:19.198Z,19.80
2022-12-12T05:23:46.656Z,21.48
2022-12-12T05:26:19.454Z,19.90
2022-12-12T05:28:47.133Z,15.68
2022-12-12T05:31:15.374Z,16.02
2022-12-12T05:33:43.005Z,18.08
2022-12-12T05:36:11.058Z,22.48
2022-12-12T05:38:40.290Z,28.70
2022-12-12T05:41:08.273Z,25.92
2022-12-12T05:43:36.480Z,26.23
2022-12-12T05:46:04.451Z,22.55
2022-12-12T05:48:32.364Z,27.30
2022-12-12T05:51:02.271Z,25.52
2022-12-12T05:53:30.593Z,23.23
2022-12-12T05:55:59.974Z,28.55
2022-12-12T05:58:28.031Z,25.30
2022-12-12T06:01:00.053Z,19.25
2022-12-12T06:03:30.745Z,23.85
2022-12-12T06:05:58.429Z,20.08
2022-12-12T06:08:26.381Z,23.25
2022-12-12T06:10:54.117Z,26.67
2022-12-12T06:13:23.089Z,26.88
2022-12-12T06:15:50.548Z,38.80
2022-12-12T06:18:18.581Z,28.52
2022-12-12T06:20:46.162Z,28.73
2022-12-12T06:23:13.656Z,29.05
2022-12-12T06:25:41.452Z,29.33
2022-12-12T06:28:08.944Z,29.40
2022-12-12T06:30:37.901Z,24.48
2022-12-12T06:33:05.340Z,25.05
2022-12-12T06:35:33.054Z,25.88
2022-12-12T06:38:00.492Z,25.92
2022-12-12T06:40:28.580Z,25.75
2022-12-12T06:42:56.539Z,27.13
2022-12-12T06:45:24.062Z,26.20
2022-12-12T06:47:53.067Z,24.67
2022-12-12T06:50:23.811Z,27.35
2022-12-12T06:52:51.543Z,30.40
2022-12-12T06:55:19.222Z,25.58
2022-12-12T06:57:46.708Z,26.85
2022-12-12T07:00:15.464Z,25.38
2022-12-12T07:02:43.150Z,34.10
2022-12-12T07:05:12.737Z,30.02
2022-12-12T07:07:40.580Z,34.10
2022-12-12T07:10:09.776Z,37.28
2022-12-12T07:12:37.378Z,39.28
2022-12-12T07:15:05.394Z,41.47
2022-12-12T07:17:32.937Z,40.30
2022-12-12T07:20:00.381Z,60.83
2022-12-12T07:22:29.488Z,51.17
2022-12-12T07:24:56.980Z,44.08
2022-12-12T07:27:25.019Z,40.83
2022-12-12T07:29:53.398Z,38.78
2022-12-12T07:32:21.242Z,36.90
2022-12-12T07:34:48.895Z,34.60
2022-12-12T07:37:17.113Z,32.63
2022-12-12T07:39:46.162Z,29.45
2022-12-12T07:42:13.860Z,28.60
2022-12-12T07:44:42.202Z,26.33
2022-12-12T07:47:10.436Z,24.50
2022-12-12T07:49:38.799Z,25.25
2022-12-12T07:52:06.555Z,24.25
2022-12-12T07:54:34.501Z,21.60
2022-12-12T07:57:04.010Z,21.15
2022-12-12T07:59:32.305Z,21.20
2022-12-12T08:02:00.154Z,20.33
2022-12-12T08:04:28.271Z,23.90
2022-12-12T08:07:02.750Z,21.88
2022-12-12T08:09:33.115Z,21.42
2022-12-12T08:12:02.587Z,21.88
2022-12-12T08:14:30.132Z,22.08
2022-12-12T08:16:57.607Z,22.00
2022-12-12T08:19:25.200Z,23.50
2022-12-12T08:21:53.041Z,22.25
2022-12-12T08:24:20.560Z,21.15
2022-12-12T08:26:50.654Z,20.33
2022-12-12T08:29:19.719Z,21.10
2022-12-12T08:31:47.537Z,19.48
2022-12-12T08:34:15.926Z,22.02
2022-12-12T08:36:44.333Z,19.63
2022-12-12T08:39:14.634Z,20.13
2022-12-12T08:41:45.143Z,20.25
2022-12-12T08:44:13.540Z,20.27
2022-12-12T08:46:42.616Z,19.90
2022-12-12T08:49:12.017Z,18.88
2022-12-12T08:51:42.119Z,17.38
2022-12-12T08:54:12.325Z,19.73
2022-12-12T08:56:40.753Z,18.38
2022-12-12T08:59:08.325Z,17.05
2022-12-12T09:01:36.019Z,18.27
2022-12-12T09:04:05.902Z,17.45
2022-12-12T09:06:33.951Z,17.30
2022-12-12T09:09:01.717Z,17.10
2022-12-12T09:11:29.856Z,17.77
2022-12-12T09:13:57.969Z,17.30
2022-12-12T09:16:25.770Z,16.85
2022-12-12T09:18:53.536Z,15.73
2022-12-12T09:21:22.746Z,18.98
2022-12-12T09:23:51.481Z,20.80
2022-12-12T09:26:19.226Z,19.73
2022-12-12T09:28:46.727Z,22.92
2022-12-12T09:31:14.907Z,24.77
2022-12-12T09:33:42.746Z,27.55
2022-12-12T09:36:11.806Z,29.85
2022-12-12T09:38:41.458Z,35.42
2022-12-12T09:41:17.010Z,37.53
2022-12-12T09:43:53.735Z,40.00
2022-12-12T09:46:30.371Z,44.65
2022-12-12T09:49:04.941Z,41.20
2022-12-12T09:51:33.440Z,44.72
2022-12-12T09:54:03.026Z,42.03
2022-12-12T09:56:37.527Z,42.38
2022-12-12T09:59:13.192Z,42.10
2022-12-12T10:01:52.767Z,42.90
2022-12-12T10:06:59.514Z,42.92
2022-12-12T10:09:40.996Z,45.20
2022-12-12T10:12:14.305Z,44.05
2022-12-12T10:14:44.984Z,45.03
2022-12-12T10:17:17.717Z,42.08
2022-12-12T10:19:49.495Z,40.58
2022-12-12T10:22:26.316Z,36.65
2022-12-12T10:25:01.676Z,38.42
2022-12-12T10:27:30.321Z,36.78
2022-12-12T10:30:07.300Z,35.08
2022-12-12T10:32:46.201Z,33.15
2022-12-12T10:35:26.423Z,32.88
2022-12-12T10:38:08.981Z,32.78
2022-12-12T10:40:49.147Z,31.83
2022-12-12T10:46:13.673Z,29.02
2022-12-12T10:48:42.056Z,29.98
2022-12-12T10:51:12.331Z,28.90
2022-12-12T10:53:42.617Z,28.48
2022-12-12T10:56:18.926Z,28.42
2022-12-12T10:58:54.301Z,27.60
2022-12-12T11:01:52.164Z,26.30
2022-12-12T11:04:15.725Z,26.52
2022-12-12T11:06:48.534Z,28.08
2022-12-12T11:09:19.744Z,26.00
2022-12-12T11:12:01.108Z,26.27
2022-12-12T11:14:34.246Z,25.70
2022-12-12T11:17:02.378Z,26.88
2022-12-12T11:19:38.897Z,26.65
2022-12-12T11:22:06.848Z,26.45
2022-12-12T11:24:36.751Z,26.45
2022-12-12T11:27:07.633Z,26.42
2022-12-12T11:29:43.057Z,25.95
2022-12-12T11:32:13.611Z,26.08
2022-12-12T11:34:46.068Z,25.38
2022-12-12T11:37:16.333Z,24.42
2022-12-12T11:39:47.354Z,24.50
2022-12-12T11:42:21.934Z,23.92
2022-12-12T11:44:59.199Z,25.42
2022-12-12T11:47:29.090Z,23.88
2022-12-12T11:49:58.569Z,23.13
2022-12-12T11:52:29.560Z,19.27
2022-12-12T11:54:57.792Z,20.50
2022-12-12T11:57:44.206Z,18.52
2022-12-12T12:00:15.013Z,22.50
2022-12-12T12:03:09.467Z,21.13
2022-12-12T12:05:49.003Z,20.92
2022-12-12T12:08:30.412Z,19.08
2022-12-12T12:11:12.154Z,20.90
2022-12-12T12:13:57.069Z,19.98
2022-12-12T12:16:35.600Z,20.70
2022-12-12T12:19:13.045Z,21.38
2022-12-12T12:21:56.125Z,20.55
2022-12-12T12:24:44.038Z,20.70
2022-12-12T12:27:19.227Z,20.40
2022-12-12T12:30:16.492Z,21.00
2022-12-12T12:33:04.350Z,19.98
2022-12-12T12:35:33.484Z,20.48
2022-12-12T12:38:19.106Z,21.30
2022-12-12T12:41:03.896Z,20.83
2022-12-12T12:43:50.558Z,21.05
2022-12-12T12:46:27.237Z,18.23
2022-12-12T12:49:01.658Z,18.50
2022-12-12T12:51:35.536Z,18.67
2022-12-12T12:54:06.668Z,18.15
2022-12-12T12:56:43.729Z,18.10
2022-12-12T12:59:17.009Z,17.13
2022-12-12T13:01:46.833Z,16.75
2022-12-12T13:04:22.601Z,17.48
2022-12-12T13:06:54.042Z,16.67
2022-12-12T13:09:39.023Z,17.15
2022-12-12T13:12:14.672Z,17.23
2022-12-12T13:14:47.851Z,16.63
2022-12-12T13:17:19.059Z,15.80
2022-12-12T13:19:50.492Z,17.02
2022-12-12T13:22:26.966Z,17.48
2022-12-12T13:25:03.846Z,16.45
2022-12-12T13:27:37.291Z,17.10
2022-12-12T13:30:19.274Z,17.00
2022-12-12T13:33:22.386Z,15.88
2022-12-12T13:35:54.632Z,16.65
2022-12-12T13:38:26.853Z,17.55
2022-12-12T13:40:59.301Z,16.98
2022-12-12T13:43:30.603Z,16.17
2022-12-12T13:45:58.287Z,16.35
2022-12-12T13:48:47.090Z,16.02
2022-12-12T13:51:40.111Z,16.45
2022-12-12T13:54:53.457Z,17.25
2022-12-12T13:57:24.554Z,18.85
2022-12-12T14:00:23.213Z,17.00
2022-12-12T14:03:06.377Z,16.02
2022-12-12T14:05:37.827Z,16.90
2022-12-12T14:08:21.619Z,17.05
2022-12-12T14:10:59.337Z,16.27
2022-12-12T14:13:45.434Z,19.00
2022-12-12T14:16:22.155Z,18.85
2022-12-12T14:19:07.175Z,17.73
2022-12-12T14:21:41.679Z,17.80
2022-12-12T14:24:54.011Z,15.75
2022-12-12T14:27:55.884Z,18.10
2022-12-12T14:30:26.004Z,17.20
2022-12-12T14:33:02.798Z,19.10
2022-12-12T14:35:38.431Z,18.73
2022-12-12T14:38:21.673Z,19.30
2022-12-12T14:41:02.122Z,16.30
2022-12-12T14:43:35.212Z,17.60
2022-12-12T14:46:03.858Z,18.65
2022-12-12T14:48:32.916Z,18.37
2022-12-12T14:51:07.011Z,20.63
2022-12-12T14:53:43.848Z,19.42
2022-12-12T14:56:15.362Z,19.48
2022-12-12T14:58:46.008Z,18.50
2022-12-12T15:01:17.973Z,13.93
2022-12-12T15:03:49.976Z,13.05
2022-12-12T15:06:29.107Z,13.77
2022-12-12T15:08:58.335Z,14.88
2022-12-12T15:11:32.552Z,15.60
2022-12-12T15:14:03.128Z,14.90
2022-12-12T15:16:40.722Z,13.38
2022-12-12T15:19:16.245Z,13.13
2022-12-12T15:21:46.295Z,13.13
2022-12-12T15:24:19.405Z,13.93
2022-12-12T15:26:51.496Z,13.98
2022-12-12T15:29:24.718Z,14.13
2022-12-12T15:32:00.261Z,13.48
2022-12-12T15:34:40.328Z,12.93
2022-12-12T15:37:28.002Z,13.35
2022-12-12T15:40:20.991Z,12.18
2022-12-12T15:42:57.089Z,12.70
2022-12-12T15:45:31.050Z,13.27
2022-12-12T15:47:59.863Z,13.43
2022-12-12T15:50:30.972Z,12.48
2022-12-12T15:53:05.952Z,12.88
2022-12-12T15:55:34.828Z,11.93
2022-12-12T15:58:04.566Z,13.03
2022-12-12T16:03:05.510Z,13.25
2022-12-12T16:05:35.834Z,12.95
2022-12-12T16:08:39.141Z,13.32
2022-12-12T16:11:30.102Z,14.02
2022-12-12T16:14:00.544Z,13.00
2022-12-12T16:16:43.837Z,12.52
2022-12-12T16:19:38.502Z,12.82
2022-12-12T16:22:13.654Z,11.95
2022-12-12T16:24:46.984Z,11.85
2022-12-12T16:27:15.143Z,11.95
2022-12-12T16:29:45.053Z,13.77
2022-12-12T16:32:17.556Z,11.75
2022-12-12T16:34:46.522Z,13.55
2022-12-12T16:37:16.646Z,11.63
2022-12-12T16:39:44.893Z,12.43
2022-12-12T16:42:15.059Z,12.48
2022-12-12T16:44:45.008Z,12.40
2022-12-12T16:47:16.543Z,12.18
2022-12-12T16:49:44.389Z,11.93
2022-12-12T16:52:13.951Z,12.85
2022-12-12T16:54:42.066Z,11.73
2022-12-12T16:57:10.758Z,11.85
2022-12-12T16:59:39.631Z,12.63
2022-12-12T17:02:18.926Z,12.95
2022-12-12T17:04:47.926Z,11.23
2022-12-12T17:07:15.901Z,13.00
2022-12-12T17:09:43.329Z,12.02
2022-12-12T17:12:11.796Z,12.07
2022-12-12T17:14:40.291Z,11.73
2022-12-12T17:17:08.265Z,11.52
2022-12-12T17:19:37.426Z,12.98
2022-12-12T17:22:05.442Z,12.60
2022-12-12T17:24:33.709Z,13.15
2022-12-12T17:27:01.846Z,12.70
2022-12-12T17:29:29.750Z,11.25
2022-12-12T17:31:57.837Z,13.13
2022-12-12T17:34:26.006Z,11.73
2022-12-12T17:36:55.554Z,12.88
2022-12-12T17:39:23.350Z,13.00
2022-12-12T17:41:53.422Z,13.23
2022-12-12T17:44:22.326Z,12.77
2022-12-12T17:46:50.770Z,12.70
2022-12-12T17:49:18.802Z,13.77
2022-12-12T17:51:46.924Z,13.68
2022-12-12T17:54:16.622Z,14.73
2022-12-12T17:56:45.016Z,12.55
2022-12-12T17:59:13.225Z,13.60
2022-12-12T18:01:40.935Z,13.68
2022-12-12T18:04:08.641Z,11.98
2022-12-12T18:06:36.634Z,12.98
2022-12-12T18:09:05.696Z,12.27
2022-12-12T18:11:35.107Z,13.35
2022-12-12T18:14:05.990Z,14.15
2022-12-12T18:16:35.685Z,12.90
2022-12-12T18:19:03.670Z,14.27
2022-12-12T18:24:21.453Z,13.15
2022-12-12T18:26:54.054Z,13.70
2022-12-12T18:29:22.833Z,13.80
2022-12-12T18:31:51.381Z,12.10
2022-12-12T18:34:18.860Z,13.48
2022-12-12T18:36:46.501Z,13.23
2022-12-12T18:39:14.053Z,13.57
2022-12-12T18:41:41.514Z,12.35
2022-12-12T18:44:14.092Z,14.52
2022-12-12T18:46:43.642Z,14.50
2022-12-12T18:49:12.660Z,12.88
2022-12-12T18:51:40.653Z,12.48
2022-12-12T18:54:14.487Z,15.13
2022-12-12T18:56:44.391Z,13.00
2022-12-12T18:59:15.513Z,13.65
2022-12-12T19:01:44.060Z,12.60
2022-12-12T19:04:15.237Z,12.05
2022-12-12T19:06:47.267Z,12.55
2022-12-12T19:09:17.051Z,13.30
2022-12-12T19:11:45.353Z,13.02
2022-12-12T19:14:16.509Z,10.98
2022-12-12T19:16:44.313Z,13.48
2022-12-12T19:19:12.119Z,13.18
2022-12-12T19:21:43.082Z,12.27
2022-12-12T19:24:11.690Z,13.10
2022-12-12T19:26:40.101Z,11.75
2022-12-12T19:29:11.266Z,12.43
2022-12-12T19:31:41.201Z,12.10
2022-12-12T19:34:10.993Z,12.85
2022-12-12T19:36:39.109Z,11.77
2022-12-12T19:39:08.331Z,11.70
2022-12-12T19:41:36.847Z,12.68
2022-12-12T19:44:05.457Z,11.77
2022-12-12T19:46:33.412Z,11.75
2022-12-12T19:49:04.248Z,11.15
2022-12-12T19:51:32.939Z,11.35
2022-12-12T19:54:00.890Z,11.63
2022-12-12T19:56:30.545Z,11.90
2022-12-12T20:01:27.655Z,12.88
2022-12-12T20:03:57.438Z,12.93
2022-12-12T20:06:26.509Z,11.50
2022-12-12T20:08:53.975Z,12.10
2022-12-12T20:11:23.412Z,12.18
2022-12-12T20:13:52.584Z,11.98
2022-12-12T20:16:21.727Z,12.43
2022-12-12T20:18:49.688Z,12.07
2022-12-12T20:21:43.627Z,12.13
2022-12-12T20:24:08.856Z,13.02
2022-12-12T20:29:03.737Z,11.65
2022-12-12T20:31:35.724Z,12.35
2022-12-12T20:34:03.242Z,11.23
2022-12-12T20:36:33.005Z,11.70
2022-12-12T20:39:03.451Z,11.57
2022-12-12T20:41:35.326Z,10.30
2022-12-12T20:44:03.269Z,11.25
2022-12-12T20:46:32.698Z,10.95
2022-12-12T20:49:03.946Z,10.85
2022-12-12T20:54:19.633Z,10.30
2022-12-12T20:56:48.845Z,10.10
2022-12-12T20:59:16.446Z,10.10
2022-12-12T21:01:44.059Z,9.85
2022-12-12T21:04:11.752Z,10.48
2022-12-12T21:06:41.135Z,10.52
2022-12-12T21:09:10.497Z,9.45
2022-12-12T21:11:39.005Z,9.93
2022-12-12T21:14:08.956Z,9.10
2022-12-12T21:16:38.574Z,9.30
2022-12-12T21:19:08.797Z,8.90
2022-12-12T21:21:36.767Z,8.75
2022-12-12T21:24:05.096Z,9.15
2022-12-12T21:26:32.934Z,9.35
2022-12-12T21:29:02.145Z,8.65
2022-12-12T21:31:32.739Z,8.95
2022-12-12T21:34:00.830Z,8.40
2022-12-12T21:36:29.926Z,9.50
2022-12-12T21:38:59.446Z,9.80
2022-12-12T21:43:55.325Z,8.02
2022-12-12T21:46:26.718Z,8.70
2022-12-12T21:48:56.450Z,8.88
2022-12-12T21:53:51.075Z,8.55
2022-12-12T21:56:19.035Z,8.95
2022-12-12T21:58:47.041Z,8.20
2022-12-12T22:01:16.922Z,8.63
2022-12-12T22:03:44.956Z,10.15
2022-12-12T22:06:15.597Z,8.60
2022-12-12T22:08:43.107Z,8.43
2022-12-12T22:11:11.255Z,8.13
2022-12-12T22:13:40.404Z,8.10
2022-12-12T22:16:10.793Z,8.40
2022-12-12T22:18:39.204Z,8.02
2022-12-12T22:21:09.069Z,7.72
2022-12-12T22:23:39.087Z,8.40
2022-12-12T22:26:14.236Z,9.20
2022-12-12T22:28:41.854Z,8.50
2022-12-12T22:31:10.126Z,8.98
2022-12-12T22:33:38.084Z,8.05
2022-12-12T22:36:07.477Z,8.70
2022-12-12T22:38:38.268Z,8.68
2022-12-12T22:41:08.366Z,7.90
2022-12-12T22:43:36.320Z,8.80
2022-12-12T22:46:05.195Z,8.40
2022-12-12T22:48:33.738Z,7.80
2022-12-12T22:51:11.941Z,8.40
2022-12-12T22:53:43.995Z,8.90
2022-12-12T22:56:14.399Z,9.27
2022-12-12T22:58:42.279Z,8.73
2022-12-12T23:01:11.726Z,8.45
2022-12-12T23:03:40.109Z,7.95
2022-12-12T23:06:10.898Z,9.38
2022-12-12T23:08:38.357Z,8.43
2022-12-12T23:11:08.021Z,9.13
2022-12-12T23:16:09.118Z,9.03
2022-12-12T23:18:38.423Z,8.30
2022-12-12T23:21:12.126Z,9.07
2022-12-12T23:23:43.545Z,8.85
2022-12-12T23:26:13.133Z,11.85
2022-12-12T23:31:12.522Z,10.75
2022-12-12T23:33:40.181Z,9.57
2022-12-12T23:36:08.917Z,10.05
2022-12-12T23:38:36.651Z,9.80
2022-12-12T23:41:05.214Z,10.00
2022-12-12T23:43:32.748Z,9.77
2022-12-12T23:46:03.728Z,11.07
2022-12-12T23:48:31.631Z,11.13
2022-12-12T23:50:59.451Z,9.20
2022-12-12T23:53:27.612Z,9.23
2022-12-12T23:55:55.041Z,11.15
2022-12-12T23:58:23.036Z,10.73
